createdAt,value
2019-02-26T00:02:02.741Z,99880.00
2019-02-26T00:04:34.459Z,99884.34
2019-02-26T00:07:03.391Z,99879.34
2019-02-26T00:09:35.195Z,99882.30
2019-02-26T00:12:04.667Z,99877.42
2019-02-26T00:14:34.196Z,99877.77
2019-02-26T00:17:06.226Z,99862.23
2019-02-26T00:19:35.813Z,99862.69
2019-02-26T00:22:07.746Z,99864.21
2019-02-26T00:24:39.889Z,99858.61
2019-02-26T00:27:10.278Z,99863.73
2019-02-26T00:29:39.533Z,99857.63
2019-02-26T00:32:10.085Z,99858.01
2019-02-26T00:34:41.167Z,99857.75
2019-02-26T00:37:11.571Z,99847.96
2019-02-26T00:39:40.827Z,99844.14
2019-02-26T00:42:11.281Z,99841.14
2019-02-26T00:44:40.844Z,99843.67
2019-02-26T00:47:10.078Z,99846.41
2019-02-26T00:49:39.342Z,99847.98
2019-02-26T00:52:13.376Z,99850.34
2019-02-26T00:54:42.843Z,99845.04
2019-02-26T00:57:13.864Z,99853.69
2019-02-26T00:59:44.069Z,99854.31
2019-02-26T01:02:16.848Z,99851.56
2019-02-26T01:04:51.072Z,99845.48
2019-02-26T01:07:21.336Z,99837.12
2019-02-26T01:09:52.477Z,99847.64
2019-02-26T01:12:24.799Z,99853.86
2019-02-26T01:14:54.024Z,99855.39
2019-02-26T01:17:26.647Z,99865.56
2019-02-26T01:19:56.573Z,99869.98
2019-02-26T01:22:31.089Z,99871.55
2019-02-26T01:25:00.273Z,99860.20
2019-02-26T01:27:29.481Z,99862.09
2019-02-26T01:30:00.578Z,99853.89
2019-02-26T01:32:31.151Z,99853.88
2019-02-26T01:35:03.299Z,99859.85
2019-02-26T01:37:34.318Z,99866.42
2019-02-26T01:40:07.379Z,99860.66
2019-02-26T01:42:35.489Z,99859.94
2019-02-26T01:45:05.704Z,99858.53
2019-02-26T01:47:34.944Z,99857.34
2019-02-26T01:50:09.381Z,99859.60
2019-02-26T01:52:39.373Z,99863.08
2019-02-26T01:55:09.779Z,99854.84
2019-02-26T01:57:42.491Z,99850.55
2019-02-26T02:00:15.319Z,99849.95
2019-02-26T02:02:45.389Z,99852.48
2019-02-26T02:05:15.001Z,99848.42
2019-02-26T02:07:48.462Z,99851.30
2019-02-26T02:10:16.284Z,99847.73
2019-02-26T02:12:47.399Z,99847.01
2019-02-26T02:15:20.459Z,99851.78
2019-02-26T02:17:47.888Z,99841.39
2019-02-26T02:20:21.030Z,99843.30
2019-02-26T02:22:48.105Z,99831.87
2019-02-26T02:25:17.615Z,99836.16
2019-02-26T02:27:49.700Z,99832.56
2019-02-26T02:30:23.069Z,99831.01
2019-02-26T02:32:53.713Z,99823.60
2019-02-26T02:35:20.452Z,99813.59
2019-02-26T02:37:51.449Z,99810.72
2019-02-26T02:40:21.355Z,99808.22
2019-02-26T02:42:53.000Z,99802.72
2019-02-26T02:45:24.696Z,99816.66
2019-02-26T02:47:57.791Z,99824.53
2019-02-26T02:50:24.905Z,99813.81
2019-02-26T02:52:56.851Z,99820.50
2019-02-26T02:55:25.577Z,99819.66
2019-02-26T02:57:57.844Z,99825.37
2019-02-26T03:00:28.797Z,99831.22
2019-02-26T03:02:58.437Z,99830.03
2019-02-26T03:05:31.322Z,99834.09
2019-02-26T03:07:59.019Z,99840.55
2019-02-26T03:10:33.482Z,99831.47
2019-02-26T03:13:05.515Z,99827.75
2019-02-26T03:15:35.907Z,99836.59
2019-02-26T03:18:07.142Z,99827.53
2019-02-26T03:20:40.338Z,99826.44
2019-02-26T03:23:19.849Z,99823.47
2019-02-26T03:25:50.506Z,99812.84
2019-02-26T03:28:20.475Z,99813.30
2019-02-26T03:30:51.820Z,99809.14
2019-02-26T03:33:21.074Z,99803.17
2019-02-26T03:35:52.630Z,99799.36
2019-02-26T03:38:24.412Z,99803.30
2019-02-26T03:40:57.475Z,99803.52
2019-02-26T03:43:25.245Z,99796.73
2019-02-26T03:45:57.485Z,99788.53
2019-02-26T03:48:26.775Z,99783.75
2019-02-26T03:51:00.567Z,99777.44
2019-02-26T03:53:30.230Z,99766.59
2019-02-26T03:56:01.986Z,99762.53
2019-02-26T03:58:29.217Z,99761.09
2019-02-26T04:01:04.524Z,99759.78
2019-02-26T04:03:32.136Z,99747.71
2019-02-26T04:06:06.687Z,99752.74
2019-02-26T04:08:38.602Z,99755.97
2019-02-26T04:11:22.811Z,99754.06
2019-02-26T04:13:52.176Z,99758.13
2019-02-26T04:16:22.212Z,99760.97
2019-02-26T04:18:52.122Z,99762.16
2019-02-26T04:21:23.202Z,99760.84
2019-02-26T04:23:55.218Z,99760.02
2019-02-26T04:27:16.333Z,99758.72
2019-02-26T04:30:13.582Z,99756.09
2019-02-26T04:33:27.818Z,99761.22
2019-02-26T04:36:29.078Z,99751.66
2019-02-26T04:39:36.863Z,99750.97
2019-02-26T04:42:59.311Z,99751.69
2019-02-26T04:45:57.253Z,99752.74
2019-02-26T04:48:29.156Z,99752.88
2019-02-26T04:51:00.278Z,99753.42
2019-02-26T04:53:35.906Z,99751.17
2019-02-26T04:56:11.971Z,99749.73
2019-02-26T04:58:45.403Z,99740.80
2019-02-26T05:01:16.415Z,99746.98
2019-02-26T05:03:45.776Z,99751.64
2019-02-26T05:06:15.309Z,99744.02
2019-02-26T05:08:44.518Z,99749.16
2019-02-26T05:11:19.056Z,99739.37
2019-02-26T05:13:45.127Z,99736.73
2019-02-26T05:16:14.374Z,99742.34
2019-02-26T05:18:45.951Z,99745.34
2019-02-26T05:21:14.594Z,99752.49
2019-02-26T05:23:43.812Z,99753.80
2019-02-26T05:26:18.268Z,99752.75
2019-02-26T05:28:49.158Z,99751.78
2019-02-26T05:31:18.236Z,99747.72
2019-02-26T05:33:50.122Z,99755.63
2019-02-26T05:36:19.230Z,99759.31
2019-02-26T05:38:51.736Z,99762.41
2019-02-26T05:41:22.110Z,99762.78
2019-02-26T05:43:55.327Z,99764.94
2019-02-26T05:46:25.047Z,99765.63
2019-02-26T05:48:54.208Z,99765.88
2019-02-26T05:51:27.446Z,99773.16
2019-02-26T05:54:01.295Z,99767.53
2019-02-26T05:56:29.784Z,99772.22
2019-02-26T05:59:04.313Z,99766.25
2019-02-26T06:01:36.380Z,99766.00
2019-02-26T06:04:14.921Z,99759.56
2019-02-26T06:06:44.954Z,99768.72
2019-02-26T06:09:14.503Z,99761.69
2019-02-26T06:11:49.421Z,99760.50
2019-02-26T06:14:14.802Z,99758.34
2019-02-26T06:16:46.184Z,99767.41
2019-02-26T06:19:17.766Z,99771.84
2019-02-26T06:21:49.226Z,99767.14
2019-02-26T06:24:22.384Z,99775.40
2019-02-26T06:26:49.749Z,99782.88
2019-02-26T06:29:24.261Z,99772.45
2019-02-26T06:31:56.875Z,99768.96
2019-02-26T06:34:27.275Z,99772.87
2019-02-26T06:37:16.488Z,99770.23
2019-02-26T06:39:52.625Z,99768.38
2019-02-26T06:42:21.163Z,99766.47
2019-02-26T06:44:51.361Z,99759.89
2019-02-26T06:47:23.550Z,99768.16
2019-02-26T06:49:53.368Z,99770.81
2019-02-26T06:52:22.611Z,99773.41
2019-02-26T06:54:57.317Z,99778.95
2019-02-26T06:57:23.084Z,99778.94
2019-02-26T06:59:53.684Z,99781.77
2019-02-26T07:02:28.148Z,99782.23
2019-02-26T07:04:54.881Z,99775.74
2019-02-26T07:07:25.426Z,99779.35
2019-02-26T07:09:57.429Z,99770.08
2019-02-26T07:12:26.749Z,99770.39
2019-02-26T07:14:58.061Z,99777.34
2019-02-26T07:17:31.917Z,99786.01
2019-02-26T07:20:00.384Z,99784.33
2019-02-26T07:22:30.478Z,99775.09
2019-02-26T07:25:00.812Z,99777.66
2019-02-26T07:27:31.998Z,99780.72
2019-02-26T07:30:03.688Z,99783.09
2019-02-26T07:32:38.235Z,99770.17
2019-02-26T07:35:09.281Z,99755.48
2019-02-26T07:37:40.356Z,99754.67
2019-02-26T07:40:15.993Z,99767.02
2019-02-26T07:42:46.607Z,99752.24
2019-02-26T07:45:22.948Z,99751.50
2019-02-26T07:47:55.894Z,99766.20
2019-02-26T07:50:24.057Z,99778.59
2019-02-26T07:52:55.259Z,99777.97
2019-02-26T07:55:24.080Z,99785.80
2019-02-26T07:57:53.386Z,99795.55
2019-02-26T08:00:23.564Z,99788.20
2019-02-26T08:02:56.436Z,99784.22
2019-02-26T08:05:28.786Z,99775.63
2019-02-26T08:07:57.814Z,99772.20
2019-02-26T08:10:29.377Z,99763.37
2019-02-26T08:13:01.056Z,99773.04
2019-02-26T08:15:30.399Z,99770.64
2019-02-26T08:18:05.189Z,99770.30
2019-02-26T08:20:37.588Z,99782.59
2019-02-26T08:23:10.376Z,99784.59
2019-02-26T08:25:39.625Z,99790.05
2019-02-26T08:28:18.560Z,99784.41
2019-02-26T08:30:49.667Z,99779.85
2019-02-26T08:33:19.604Z,99776.17
2019-02-26T08:35:49.208Z,99778.72
2019-02-26T08:38:21.820Z,99772.16
2019-02-26T08:40:51.863Z,99769.77
2019-02-26T08:43:23.719Z,99768.45
2019-02-26T08:45:52.957Z,99756.86
2019-02-26T08:48:24.514Z,99761.42
2019-02-26T08:51:00.761Z,99758.67
2019-02-26T08:53:31.619Z,99762.33
2019-02-26T08:56:03.999Z,99763.96
2019-02-26T08:58:33.566Z,99762.11
2019-02-26T09:01:02.830Z,99762.36
2019-02-26T09:03:40.314Z,99760.30
2019-02-26T09:06:12.632Z,99764.81
2019-02-26T09:08:43.155Z,99775.38
2019-02-26T09:11:13.553Z,99775.56
2019-02-26T09:13:43.983Z,99770.63
2019-02-26T09:16:14.693Z,99771.19
2019-02-26T09:18:45.812Z,99772.35
2019-02-26T09:21:20.532Z,99760.33
2019-02-26T09:23:54.910Z,99764.77
2019-02-26T09:26:23.310Z,99759.55
2019-02-26T09:28:55.414Z,99760.20
2019-02-26T09:31:25.213Z,99756.05
2019-02-26T09:33:54.787Z,99753.75
2019-02-26T09:36:26.026Z,99757.37
2019-02-26T09:38:54.982Z,99754.86
2019-02-26T09:41:25.015Z,99755.50
2019-02-26T09:43:54.267Z,99761.72
2019-02-26T09:46:24.576Z,99764.48
2019-02-26T09:48:54.568Z,99759.27
2019-02-26T09:51:23.820Z,99751.03
2019-02-26T09:53:54.803Z,99744.44
2019-02-26T09:56:25.564Z,99748.73
2019-02-26T09:58:55.601Z,99748.92
2019-02-26T10:01:24.934Z,99749.59
2019-02-26T10:03:56.003Z,99743.41
2019-02-26T10:06:28.062Z,99733.72
2019-02-26T10:08:57.981Z,99738.89
2019-02-26T10:11:28.075Z,99735.70
2019-02-26T10:13:57.380Z,99726.64
2019-02-26T10:16:28.267Z,99736.11
2019-02-26T10:19:00.054Z,99729.33
2019-02-26T10:21:33.101Z,99730.00
2019-02-26T10:24:04.237Z,99736.94
2019-02-26T10:26:33.568Z,99732.60
2019-02-26T10:29:04.865Z,99733.20
2019-02-26T10:31:34.370Z,99730.28
2019-02-26T10:34:07.898Z,99721.73
2019-02-26T10:36:40.854Z,99721.61
2019-02-26T10:39:08.646Z,99704.26
2019-02-26T10:41:41.870Z,99704.26
2019-02-26T10:44:14.701Z,99708.21
2019-02-26T10:46:44.525Z,99708.17
2019-02-26T10:49:15.351Z,99704.16
2019-02-26T10:51:44.596Z,99685.28
2019-02-26T10:54:18.037Z,99683.98
2019-02-26T10:56:47.660Z,99686.30
2019-02-26T10:59:19.598Z,99684.06
2019-02-26T11:01:53.248Z,99683.47
2019-02-26T11:04:22.156Z,99679.20
2019-02-26T11:06:53.174Z,99674.39
2019-02-26T11:09:27.181Z,99674.83
2019-02-26T11:11:58.356Z,99670.38
2019-02-26T11:14:26.617Z,99653.33
2019-02-26T11:16:56.626Z,99668.07
2019-02-26T11:19:29.158Z,99668.44
2019-02-26T11:22:00.608Z,99654.24
2019-02-26T11:24:33.673Z,99651.88
2019-02-26T11:27:03.156Z,99646.49
2019-02-26T11:29:35.858Z,99637.92
2019-02-26T11:32:07.601Z,99647.82
2019-02-26T11:34:38.612Z,99636.92
2019-02-26T11:37:08.971Z,99642.67
2019-02-26T11:39:38.491Z,99631.78
2019-02-26T11:42:08.074Z,99633.92
2019-02-26T11:44:39.046Z,99633.34
2019-02-26T11:47:10.774Z,99623.95
2019-02-26T11:49:41.852Z,99622.45
2019-02-26T11:52:11.898Z,99615.93
2019-02-26T11:54:44.546Z,99613.83
2019-02-26T11:57:15.183Z,99618.00
2019-02-26T11:59:49.996Z,99600.41
2019-02-26T12:02:26.681Z,99602.30
2019-02-26T12:04:50.203Z,99593.94
2019-02-26T12:07:19.455Z,99589.14
2019-02-26T12:09:50.615Z,99585.50
2019-02-26T12:12:19.891Z,99578.08
2019-02-26T12:14:50.191Z,99574.05
2019-02-26T12:17:19.418Z,99570.44
2019-02-26T12:19:57.897Z,99571.12
2019-02-26T12:22:29.629Z,99560.62
2019-02-26T12:25:01.833Z,99552.13
2019-02-26T12:27:30.793Z,99557.00
2019-02-26T12:30:00.548Z,99552.30
2019-02-26T12:32:29.707Z,99551.09
2019-02-26T12:35:03.434Z,99547.58
2019-02-26T12:37:33.297Z,99543.84
2019-02-26T12:40:02.993Z,99544.23
2019-02-26T12:42:34.037Z,99537.97
2019-02-26T12:45:07.819Z,99536.25
2019-02-26T12:47:36.397Z,99537.91
2019-02-26T12:50:09.680Z,99541.53
2019-02-26T12:52:38.515Z,99547.17
2019-02-26T12:55:10.418Z,99541.18
2019-02-26T12:57:39.566Z,99537.66
2019-02-26T13:00:16.330Z,99531.03
2019-02-26T13:02:45.848Z,99533.20
2019-02-26T13:05:22.930Z,99530.45
2019-02-26T13:07:51.230Z,99525.59
2019-02-26T13:10:22.188Z,99522.13
2019-02-26T13:15:25.525Z,99508.72
2019-02-26T13:17:54.771Z,99509.45
2019-02-26T13:20:24.547Z,99504.68
2019-02-26T13:23:16.223Z,99504.68
2019-02-26T13:25:30.260Z,99502.38
2019-02-26T13:28:00.319Z,99504.18
2019-02-26T13:30:29.841Z,99501.30
2019-02-26T13:33:05.172Z,99496.36
2019-02-26T13:35:36.880Z,99486.52
2019-02-26T13:38:06.156Z,99480.86
2019-02-26T13:40:38.383Z,99479.82
2019-02-26T13:43:08.324Z,99472.48
2019-02-26T13:45:39.878Z,99477.42
2019-02-26T13:48:11.055Z,99465.91
2019-02-26T13:50:40.305Z,99463.62
2019-02-26T13:53:10.726Z,99467.44
2019-02-26T13:55:39.975Z,99469.33
2019-02-26T13:58:11.872Z,99464.84
2019-02-26T14:00:44.775Z,99463.41
2019-02-26T14:03:14.571Z,99470.00
2019-02-26T14:05:43.829Z,99461.30
2019-02-26T14:08:13.047Z,99465.86
2019-02-26T14:10:45.472Z,99459.80
2019-02-26T14:13:15.237Z,99460.38
2019-02-26T14:15:47.810Z,99454.81
2019-02-26T14:18:16.985Z,99459.06
2019-02-26T14:20:48.603Z,99456.70
2019-02-26T14:23:18.204Z,99451.41
2019-02-26T14:25:47.937Z,99454.99
2019-02-26T14:28:17.179Z,99432.47
2019-02-26T14:30:51.861Z,99432.47
2019-02-26T14:33:21.612Z,99429.96
2019-02-26T14:35:51.926Z,99431.41
2019-02-26T14:38:21.306Z,99425.48
2019-02-26T14:40:50.569Z,99421.87
2019-02-26T14:43:19.607Z,99416.64
2019-02-26T14:45:48.863Z,99424.23
2019-02-26T14:48:18.415Z,99430.58
2019-02-26T14:50:47.761Z,99427.21
2019-02-26T14:53:17.305Z,99423.36
2019-02-26T14:55:46.913Z,99425.58
2019-02-26T14:58:16.149Z,99424.70
2019-02-26T15:00:57.107Z,99425.81
2019-02-26T15:03:18.504Z,99424.85
2019-02-26T15:05:47.864Z,99426.55
2019-02-26T15:08:17.103Z,99425.34
2019-02-26T15:10:46.476Z,99433.05
2019-02-26T15:13:16.791Z,99427.76
2019-02-26T15:15:46.860Z,99433.39
2019-02-26T15:18:18.531Z,99436.69
2019-02-26T15:20:48.140Z,99424.89
2019-02-26T15:23:30.011Z,99424.38
2019-02-26T15:25:59.259Z,99428.19
2019-02-26T15:28:29.050Z,99414.89
2019-02-26T15:30:58.349Z,99409.59
2019-02-26T15:33:27.897Z,99413.36
2019-02-26T15:35:57.116Z,99420.25
2019-02-26T15:38:26.369Z,99418.02
2019-02-26T15:40:55.600Z,99415.42
2019-02-26T15:43:25.168Z,99405.48
2019-02-26T15:45:55.025Z,99407.84
2019-02-26T15:48:26.839Z,99409.85
2019-02-26T15:50:55.886Z,99404.87
2019-02-26T15:53:25.411Z,99398.06
2019-02-26T15:55:59.184Z,99393.87
2019-02-26T15:58:28.215Z,99394.27
2019-02-26T16:00:57.821Z,99390.08
2019-02-26T16:03:29.296Z,99389.69
2019-02-26T16:05:59.241Z,99397.53
2019-02-26T16:08:34.620Z,99400.21
2019-02-26T16:10:59.750Z,99401.02
2019-02-26T16:13:30.439Z,99395.64
2019-02-26T16:15:59.864Z,99400.21
2019-02-26T16:18:29.568Z,99393.02
2019-02-26T16:21:01.430Z,99393.72
2019-02-26T16:23:31.054Z,99398.28
2019-02-26T16:26:01.751Z,99394.23
2019-02-26T16:28:31.031Z,99406.47
2019-02-26T16:31:00.411Z,99404.16
2019-02-26T16:33:29.680Z,99412.16
2019-02-26T16:36:00.214Z,99412.38
2019-02-26T16:38:31.892Z,99408.81
2019-02-26T16:41:02.780Z,99418.86
2019-02-26T16:43:33.500Z,99413.53
2019-02-26T16:46:03.068Z,99424.47
2019-02-26T16:48:33.700Z,99425.77
2019-02-26T16:51:03.104Z,99423.81
2019-02-26T16:53:34.295Z,99431.80
2019-02-26T16:56:04.968Z,99431.33
2019-02-26T16:58:35.578Z,99430.23
2019-02-26T17:01:07.635Z,99436.14
2019-02-26T17:03:37.252Z,99432.75
2019-02-26T17:06:07.843Z,99424.51
2019-02-26T17:08:37.616Z,99432.80
2019-02-26T17:11:13.339Z,99427.70
2019-02-26T17:13:44.207Z,99432.72
2019-02-26T17:16:13.397Z,99441.44
2019-02-26T17:18:43.360Z,99435.49
2019-02-26T17:21:13.230Z,99434.45
2019-02-26T17:23:44.857Z,99432.98
2019-02-26T17:26:14.495Z,99432.69
2019-02-26T17:28:46.357Z,99426.41
2019-02-26T17:31:16.693Z,99428.72
2019-02-26T17:33:47.230Z,99433.62
2019-02-26T17:36:19.450Z,99433.00
2019-02-26T17:38:51.541Z,99438.03
2019-02-26T17:41:19.957Z,99439.66
2019-02-26T17:43:49.204Z,99436.45
2019-02-26T17:46:18.413Z,99438.72
2019-02-26T17:48:48.585Z,99439.02
2019-02-26T17:51:21.202Z,99441.13
2019-02-26T17:53:52.781Z,99437.63
2019-02-26T17:56:26.681Z,99438.52
2019-02-26T17:58:56.690Z,99435.45
2019-02-26T18:01:25.913Z,99443.97
2019-02-26T18:03:56.321Z,99440.80
2019-02-26T18:06:26.037Z,99444.10
2019-02-26T18:08:56.437Z,99440.02
2019-02-26T18:11:29.747Z,99440.64
2019-02-26T18:14:00.222Z,99440.47
2019-02-26T18:16:31.725Z,99451.95
2019-02-26T18:19:01.475Z,99449.61
2019-02-26T18:21:33.835Z,99455.01
2019-02-26T18:24:03.555Z,99446.27
2019-02-26T18:26:34.907Z,99453.94
2019-02-26T18:29:04.168Z,99456.75
2019-02-26T18:31:33.386Z,99460.36
2019-02-26T18:34:02.655Z,99450.38
2019-02-26T18:36:33.104Z,99451.86
2019-02-26T18:39:02.726Z,99444.48
2019-02-26T18:41:35.090Z,99444.55
2019-02-26T18:44:06.233Z,99444.80
2019-02-26T18:46:37.454Z,99435.16
2019-02-26T18:49:07.426Z,99430.08
2019-02-26T18:51:37.846Z,99436.94
2019-02-26T18:54:07.087Z,99435.36
2019-02-26T18:56:39.483Z,99430.27
2019-02-26T18:59:08.500Z,99428.30
2019-02-26T19:01:38.050Z,99431.21
2019-02-26T19:04:08.258Z,99436.05
2019-02-26T19:06:37.489Z,99431.71
2019-02-26T19:09:11.485Z,99431.41
2019-02-26T19:11:39.762Z,99437.11
2019-02-26T19:14:09.960Z,99436.97
2019-02-26T19:16:39.128Z,99427.44
2019-02-26T19:19:09.084Z,99419.82
2019-02-26T19:21:39.406Z,99412.70
2019-02-26T19:24:12.496Z,99420.47
2019-02-26T19:26:44.451Z,99420.56
2019-02-26T19:29:14.423Z,99416.31
2019-02-26T19:31:44.468Z,99412.14
2019-02-26T19:34:13.704Z,99403.66
2019-02-26T19:36:45.467Z,99400.93
2019-02-26T19:39:14.802Z,99391.78
2019-02-26T19:41:45.923Z,99389.03
2019-02-26T19:44:15.087Z,99392.91
2019-02-26T19:46:45.078Z,99394.33
2019-02-26T19:49:17.600Z,99402.02
2019-02-26T19:51:46.843Z,99400.93
2019-02-26T19:54:16.067Z,99397.48
2019-02-26T19:56:45.312Z,99409.42
2019-02-26T19:59:15.914Z,99398.41
2019-02-26T20:01:46.795Z,99397.72
2019-02-26T20:04:17.408Z,99396.80
2019-02-26T20:06:46.961Z,99401.06
2019-02-26T20:09:21.851Z,99392.89
2019-02-26T20:11:56.068Z,99384.53
2019-02-26T20:14:24.723Z,99378.86
2019-02-26T20:16:53.968Z,99377.26
2019-02-26T20:19:23.189Z,99370.48
2019-02-26T20:21:57.059Z,99364.59
2019-02-26T20:24:27.722Z,99362.33
2019-02-26T20:26:59.119Z,99364.69
2019-02-26T20:29:36.265Z,99359.17
2019-02-26T20:32:06.903Z,99363.44
2019-02-26T20:34:36.665Z,99369.02
2019-02-26T20:37:06.790Z,99366.14
2019-02-26T20:39:40.652Z,99370.38
2019-02-26T20:42:09.136Z,99364.12
2019-02-26T20:44:42.799Z,99367.13
2019-02-26T20:47:12.557Z,99377.46
2019-02-26T20:49:46.256Z,99383.06
2019-02-26T20:52:15.764Z,99390.17
2019-02-26T20:54:45.111Z,99396.48
2019-02-26T20:57:14.399Z,99402.45
2019-02-26T20:59:44.133Z,99401.31
2019-02-26T21:02:13.395Z,99406.11
2019-02-26T21:04:44.447Z,99404.90
2019-02-26T21:07:14.867Z,99401.25
2019-02-26T21:09:44.099Z,99401.19
2019-02-26T21:12:14.259Z,99401.23
2019-02-26T21:14:43.722Z,99403.97
2019-02-26T21:17:13.329Z,99406.91
2019-02-26T21:19:44.318Z,99400.93
2019-02-26T21:22:14.675Z,99411.55
2019-02-26T21:24:46.977Z,99406.23
2019-02-26T21:27:17.436Z,99406.72
2019-02-26T21:29:55.610Z,99416.88
2019-02-26T21:32:28.668Z,99408.52
2019-02-26T21:34:57.889Z,99404.00
2019-02-26T21:37:32.627Z,99408.35
2019-02-26T21:40:00.304Z,99396.53
2019-02-26T21:42:32.504Z,99400.04
2019-02-26T21:45:03.555Z,99399.05
2019-02-26T21:47:32.816Z,99398.13
2019-02-26T21:50:02.034Z,99404.64
2019-02-26T21:52:39.749Z,99410.46
2019-02-26T21:55:10.208Z,99405.18
2019-02-26T21:57:41.296Z,99406.36
2019-02-26T22:00:13.496Z,99411.95
2019-02-26T22:02:44.436Z,99408.06
2019-02-26T22:05:14.112Z,99396.07
2019-02-26T22:07:43.685Z,99394.81
2019-02-26T22:10:14.778Z,99398.36
2019-02-26T22:12:45.680Z,99398.73
2019-02-26T22:15:16.132Z,99397.66
2019-02-26T22:17:49.434Z,99391.78
2019-02-26T22:20:33.011Z,99398.51
2019-02-26T22:22:53.897Z,99396.17
2019-02-26T22:25:25.071Z,99394.84
2019-02-26T22:27:54.624Z,99392.73
2019-02-26T22:30:24.166Z,99398.59
2019-02-26T22:32:55.647Z,99392.02
2019-02-26T22:35:26.407Z,99399.17
2019-02-26T22:37:56.070Z,99385.39
2019-02-26T22:40:28.915Z,99392.70
2019-02-26T22:42:56.270Z,99396.42
2019-02-26T22:45:27.854Z,99390.73
2019-02-26T22:47:57.219Z,99373.98
2019-02-26T22:50:27.281Z,99379.70
2019-02-26T22:52:57.036Z,99386.31
2019-02-26T22:55:26.757Z,99396.92
2019-02-26T22:57:55.974Z,99400.53
2019-02-26T23:00:58.312Z,99395.39
2019-02-26T23:03:27.562Z,99393.69
2019-02-26T23:06:01.404Z,99399.08
2019-02-26T23:08:30.931Z,99392.98
2019-02-26T23:11:00.283Z,99387.48
2019-02-26T23:13:31.916Z,99386.47
2019-02-26T23:16:01.809Z,99391.77
2019-02-26T23:18:33.869Z,99383.86
2019-02-26T23:21:04.616Z,99383.34
2019-02-26T23:23:34.441Z,99380.36
2019-02-26T23:26:03.979Z,99380.51
2019-02-26T23:28:34.346Z,99389.67
2019-02-26T23:31:05.429Z,99392.34
2019-02-26T23:33:36.388Z,99391.73
2019-02-26T23:36:08.930Z,99393.57
2019-02-26T23:38:44.198Z,99394.75
2019-02-26T23:41:13.969Z,99391.44
2019-02-26T23:43:45.400Z,99382.15
2019-02-26T23:46:15.719Z,99371.88
2019-02-26T23:48:45.685Z,99378.92
2019-02-26T23:51:14.938Z,99385.78
2019-02-26T23:53:44.504Z,99377.51
2019-02-26T23:56:16.754Z,99373.14
2019-02-26T23:58:47.275Z,99368.81
